sensor_id;sensor_type;location;lat;lon;timestamp;P1;durP1;ratioP1;P2;durP2;ratioP2
21084;SDS011;34247;50.064;19.970;2022-08-06T00:00:04;5.45;;;3.90;;
21084;SDS011;34247;50.064;19.970;2022-08-06T00:01:13;7.05;;;3.88;;
21084;SDS011;34247;50.064;19.970;2022-08-06T00:02:17;6.43;;;4.25;;
21084;SDS011;34247;50.064;19.970;2022-08-06T00:03:31;9.43;;;3.92;;
21084;SDS011;34247;50.064;19.970;2022-08-06T00:04:36;11.57;;;4.80;;
21084;SDS011;34247;50.064;19.970;2022-08-06T00:05:40;7.50;;;3.88;;
21084;SDS011;34247;50.064;19.970;2022-08-06T00:06:48;5.43;;;3.88;;
21084;SDS011;34247;50.064;19.970;2022-08-06T00:07:52;5.35;;;3.50;;
21084;SDS011;34247;50.064;19.970;2022-08-06T00:09:00;5.97;;;4.30;;
21084;SDS011;34247;50.064;19.970;2022-08-06T00:10:07;9.95;;;4.28;;
21084;SDS011;34247;50.064;19.970;2022-08-06T00:11:11;4.50;;;3.78;;
21084;SDS011;34247;50.064;19.970;2022-08-06T00:12:17;4.22;;;3.38;;
21084;SDS011;34247;50.064;19.970;2022-08-06T00:13:21;9.35;;;4.10;;
21084;SDS011;34247;50.064;19.970;2022-08-06T00:14:29;4.63;;;3.92;;
21084;SDS011;34247;50.064;19.970;2022-08-06T00:15:35;4.88;;;4.15;;
21084;SDS011;34247;50.064;19.970;2022-08-06T00:17:00;5.30;;;3.60;;
21084;SDS011;34247;50.064;19.970;2022-08-06T00:18:07;5.90;;;4.07;;
21084;SDS011;34247;50.064;19.970;2022-08-06T00:19:14;4.80;;;4.30;;
21084;SDS011;34247;50.064;19.970;2022-08-06T00:20:21;9.15;;;4.15;;
21084;SDS011;34247;50.064;19.970;2022-08-06T00:21:33;5.18;;;3.28;;
21084;SDS011;34247;50.064;19.970;2022-08-06T00:22:44;6.70;;;3.47;;
21084;SDS011;34247;50.064;19.970;2022-08-06T00:23:48;5.15;;;3.83;;
21084;SDS011;34247;50.064;19.970;2022-08-06T00:24:57;10.70;;;5.18;;
21084;SDS011;34247;50.064;19.970;2022-08-06T00:26:01;4.57;;;3.28;;
21084;SDS011;34247;50.064;19.970;2022-08-06T00:27:07;6.72;;;4.55;;
21084;SDS011;34247;50.064;19.970;2022-08-06T00:28:17;5.10;;;4.07;;
21084;SDS011;34247;50.064;19.970;2022-08-06T00:29:33;4.72;;;3.22;;
21084;SDS011;34247;50.064;19.970;2022-08-06T00:30:49;4.60;;;4.10;;
21084;SDS011;34247;50.064;19.970;2022-08-06T00:31:54;5.60;;;3.55;;
21084;SDS011;34247;50.064;19.970;2022-08-06T00:32:58;7.32;;;4.38;;
21084;SDS011;34247;50.064;19.970;2022-08-06T00:34:03;4.72;;;3.47;;
21084;SDS011;34247;50.064;19.970;2022-08-06T00:35:10;5.57;;;4.03;;
21084;SDS011;34247;50.064;19.970;2022-08-06T00:36:18;5.07;;;4.25;;
21084;SDS011;34247;50.064;19.970;2022-08-06T00:37:27;4.85;;;3.53;;
21084;SDS011;34247;50.064;19.970;2022-08-06T00:38:52;8.75;;;4.70;;
21084;SDS011;34247;50.064;19.970;2022-08-06T00:39:58;8.23;;;3.83;;
21084;SDS011;34247;50.064;19.970;2022-08-06T00:41:03;5.50;;;3.33;;
21084;SDS011;34247;50.064;19.970;2022-08-06T00:42:10;6.50;;;4.07;;
21084;SDS011;34247;50.064;19.970;2022-08-06T00:43:18;5.43;;;4.10;;
21084;SDS011;34247;50.064;19.970;2022-08-06T00:44:23;6.25;;;4.40;;
21084;SDS011;34247;50.064;19.970;2022-08-06T00:45:34;3.42;;;3.13;;
21084;SDS011;34247;50.064;19.970;2022-08-06T00:46:41;6.93;;;3.58;;
21084;SDS011;34247;50.064;19.970;2022-08-06T00:47:47;6.28;;;4.07;;
21084;SDS011;34247;50.064;19.970;2022-08-06T00:49:09;4.28;;;3.65;;
21084;SDS011;34247;50.064;19.970;2022-08-06T00:50:13;3.97;;;3.55;;
21084;SDS011;34247;50.064;19.970;2022-08-06T00:51:20;6.50;;;4.43;;
21084;SDS011;34247;50.064;19.970;2022-08-06T00:52:25;6.38;;;4.47;;
21084;SDS011;34247;50.064;19.970;2022-08-06T00:53:29;8.15;;;4.55;;
21084;SDS011;34247;50.064;19.970;2022-08-06T00:54:36;4.70;;;3.33;;
21084;SDS011;34247;50.064;19.970;2022-08-06T00:55:41;5.80;;;3.88;;
21084;SDS011;34247;50.064;19.970;2022-08-06T00:57:04;7.20;;;3.70;;
21084;SDS011;34247;50.064;19.970;2022-08-06T00:58:13;7.05;;;2.90;;
21084;SDS011;34247;50.064;19.970;2022-08-06T00:59:17;6.50;;;4.05;;
21084;SDS011;34247;50.064;19.970;2022-08-06T01:00:22;4.10;;;3.17;;
21084;SDS011;34247;50.064;19.970;2022-08-06T01:01:32;6.00;;;3.88;;
21084;SDS011;34247;50.064;19.970;2022-08-06T01:02:52;6.57;;;4.05;;
21084;SDS011;34247;50.064;19.970;2022-08-06T01:03:56;8.18;;;4.97;;
21084;SDS011;34247;50.064;19.970;2022-08-06T01:05:00;6.95;;;3.38;;
21084;SDS011;34247;50.064;19.970;2022-08-06T01:06:24;5.22;;;3.83;;
21084;SDS011;34247;50.064;19.970;2022-08-06T01:07:48;5.88;;;3.30;;
21084;SDS011;34247;50.064;19.970;2022-08-06T01:08:54;4.55;;;3.45;;
21084;SDS011;34247;50.064;19.970;2022-08-06T01:10:00;8.77;;;4.07;;
21084;SDS011;34247;50.064;19.970;2022-08-06T01:11:05;5.32;;;3.78;;
21084;SDS011;34247;50.064;19.970;2022-08-06T01:12:10;4.28;;;3.38;;
21084;SDS011;34247;50.064;19.970;2022-08-06T01:13:15;6.45;;;3.85;;
21084;SDS011;34247;50.064;19.970;2022-08-06T01:14:27;5.22;;;4.25;;
21084;SDS011;34247;50.064;19.970;2022-08-06T01:15:42;4.68;;;3.50;;
21084;SDS011;34247;50.064;19.970;2022-08-06T01:17:38;4.15;;;3.00;;
21084;SDS011;34247;50.064;19.970;2022-08-06T01:21:04;5.13;;;3.72;;
21084;SDS011;34247;50.064;19.970;2022-08-06T01:27:50;6.15;;;3.78;;
21084;SDS011;34247;50.064;19.970;2022-08-06T01:29:08;5.25;;;4.30;;
21084;SDS011;34247;50.064;19.970;2022-08-06T01:30:29;8.48;;;4.00;;
21084;SDS011;34247;50.064;19.970;2022-08-06T01:31:50;3.65;;;3.20;;
21084;SDS011;34247;50.064;19.970;2022-08-06T01:33:14;4.95;;;3.65;;
21084;SDS011;34247;50.064;19.970;2022-08-06T01:34:40;6.65;;;4.40;;
21084;SDS011;34247;50.064;19.970;2022-08-06T01:35:59;5.45;;;3.90;;
21084;SDS011;34247;50.064;19.970;2022-08-06T01:37:16;4.88;;;3.80;;
21084;SDS011;34247;50.064;19.970;2022-08-06T01:38:42;5.78;;;4.00;;
21084;SDS011;34247;50.064;19.970;2022-08-06T01:40:04;8.27;;;4.32;;
21084;SDS011;34247;50.064;19.970;2022-08-06T01:41:22;4.95;;;3.53;;
21084;SDS011;34247;50.064;19.970;2022-08-06T01:43:00;5.72;;;3.60;;
21084;SDS011;34247;50.064;19.970;2022-08-06T01:44:29;8.23;;;4.55;;
21084;SDS011;34247;50.064;19.970;2022-08-06T01:45:38;3.55;;;3.25;;
21084;SDS011;34247;50.064;19.970;2022-08-06T01:46:58;4.72;;;3.72;;
21084;SDS011;34247;50.064;19.970;2022-08-06T01:48:19;4.95;;;3.75;;
21084;SDS011;34247;50.064;19.970;2022-08-06T01:49:30;5.22;;;3.58;;
21084;SDS011;34247;50.064;19.970;2022-08-06T01:51:01;4.50;;;3.40;;
21084;SDS011;34247;50.064;19.970;2022-08-06T01:52:31;5.70;;;3.83;;
21084;SDS011;34247;50.064;19.970;2022-08-06T01:53:43;6.25;;;4.20;;
21084;SDS011;34247;50.064;19.970;2022-08-06T01:55:13;6.15;;;3.60;;
21084;SDS011;34247;50.064;19.970;2022-08-06T01:56:23;6.18;;;3.65;;
21084;SDS011;34247;50.064;19.970;2022-08-06T01:57:51;5.00;;;4.03;;
21084;SDS011;34247;50.064;19.970;2022-08-06T01:59:21;9.57;;;4.53;;
21084;SDS011;34247;50.064;19.970;2022-08-06T02:00:35;4.55;;;3.33;;
21084;SDS011;34247;50.064;19.970;2022-08-06T02:01:52;4.55;;;3.78;;
21084;SDS011;34247;50.064;19.970;2022-08-06T02:03:01;10.20;;;3.88;;
21084;SDS011;34247;50.064;19.970;2022-08-06T02:04:20;4.60;;;3.60;;
21084;SDS011;34247;50.064;19.970;2022-08-06T02:05:41;8.85;;;3.85;;
21084;SDS011;34247;50.064;19.970;2022-08-06T02:06:55;10.32;;;3.58;;
21084;SDS011;34247;50.064;19.970;2022-08-06T02:08:03;7.05;;;4.05;;
21084;SDS011;34247;50.064;19.970;2022-08-06T02:09:30;4.18;;;3.22;;
21084;SDS011;34247;50.064;19.970;2022-08-06T02:10:41;6.43;;;3.95;;
21084;SDS011;34247;50.064;19.970;2022-08-06T02:12:23;3.95;;;3.42;;
21084;SDS011;34247;50.064;19.970;2022-08-06T02:13:27;4.82;;;4.38;;
21084;SDS011;34247;50.064;19.970;2022-08-06T02:15:01;5.20;;;3.28;;
21084;SDS011;34247;50.064;19.970;2022-08-06T02:16:18;5.80;;;3.97;;
21084;SDS011;34247;50.064;19.970;2022-08-06T02:17:30;6.03;;;4.18;;
21084;SDS011;34247;50.064;19.970;2022-08-06T02:19:01;7.47;;;4.07;;
21084;SDS011;34247;50.064;19.970;2022-08-06T02:20:16;6.93;;;4.53;;
21084;SDS011;34247;50.064;19.970;2022-08-06T02:21:40;7.25;;;4.53;;
21084;SDS011;34247;50.064;19.970;2022-08-06T02:22:55;6.55;;;4.03;;
21084;SDS011;34247;50.064;19.970;2022-08-06T02:24:05;6.88;;;4.80;;
21084;SDS011;34247;50.064;19.970;2022-08-06T02:25:12;8.52;;;4.80;;
21084;SDS011;34247;50.064;19.970;2022-08-06T02:26:28;7.97;;;5.75;;
21084;SDS011;34247;50.064;19.970;2022-08-06T02:27:34;7.40;;;4.32;;
21084;SDS011;34247;50.064;19.970;2022-08-06T02:28:56;11.95;;;5.45;;
21084;SDS011;34247;50.064;19.970;2022-08-06T02:30:03;5.60;;;4.30;;
21084;SDS011;34247;50.064;19.970;2022-08-06T02:31:09;6.72;;;4.28;;
21084;SDS011;34247;50.064;19.970;2022-08-06T02:32:13;5.15;;;4.32;;
21084;SDS011;34247;50.064;19.970;2022-08-06T02:33:20;8.38;;;5.43;;
21084;SDS011;34247;50.064;19.970;2022-08-06T02:34:45;9.05;;;5.28;;
21084;SDS011;34247;50.064;19.970;2022-08-06T02:36:02;6.00;;;4.70;;
21084;SDS011;34247;50.064;19.970;2022-08-06T02:37:30;9.85;;;5.65;;
21084;SDS011;34247;50.064;19.970;2022-08-06T02:39:15;6.93;;;5.00;;
21084;SDS011;34247;50.064;19.970;2022-08-06T02:40:44;9.25;;;5.18;;
21084;SDS011;34247;50.064;19.970;2022-08-06T02:42:11;11.25;;;5.57;;
21084;SDS011;34247;50.064;19.970;2022-08-06T02:43:36;7.78;;;5.70;;
21084;SDS011;34247;50.064;19.970;2022-08-06T02:46:10;6.35;;;5.18;;
21084;SDS011;34247;50.064;19.970;2022-08-06T02:49:09;6.50;;;4.70;;
21084;SDS011;34247;50.064;19.970;2022-08-06T02:50:29;8.38;;;5.07;;
21084;SDS011;34247;50.064;19.970;2022-08-06T02:51:47;9.38;;;5.93;;
21084;SDS011;34247;50.064;19.970;2022-08-06T02:53:23;9.82;;;5.78;;
21084;SDS011;34247;50.064;19.970;2022-08-06T02:55:07;8.70;;;6.00;;
21084;SDS011;34247;50.064;19.970;2022-08-06T02:56:17;9.57;;;5.13;;
21084;SDS011;34247;50.064;19.970;2022-08-06T02:57:31;7.63;;;5.35;;
21084;SDS011;34247;50.064;19.970;2022-08-06T02:58:53;6.90;;;5.22;;
21084;SDS011;34247;50.064;19.970;2022-08-06T03:00:04;7.22;;;5.65;;
21084;SDS011;34247;50.064;19.970;2022-08-06T03:01:18;10.35;;;4.90;;
21084;SDS011;34247;50.064;19.970;2022-08-06T03:02:45;7.75;;;5.55;;
21084;SDS011;34247;50.064;19.970;2022-08-06T03:03:58;6.05;;;4.82;;
21084;SDS011;34247;50.064;19.970;2022-08-06T03:05:05;14.23;;;5.68;;
21084;SDS011;34247;50.064;19.970;2022-08-06T03:06:14;10.52;;;6.25;;
21084;SDS011;34247;50.064;19.970;2022-08-06T03:07:27;5.93;;;4.43;;
21084;SDS011;34247;50.064;19.970;2022-08-06T03:08:36;8.55;;;5.68;;
21084;SDS011;34247;50.064;19.970;2022-08-06T03:09:41;7.00;;;5.13;;
21084;SDS011;34247;50.064;19.970;2022-08-06T03:10:53;7.57;;;5.70;;
21084;SDS011;34247;50.064;19.970;2022-08-06T03:12:01;9.63;;;6.20;;
21084;SDS011;34247;50.064;19.970;2022-08-06T03:13:27;9.63;;;5.40;;
21084;SDS011;34247;50.064;19.970;2022-08-06T03:14:38;7.75;;;5.70;;
21084;SDS011;34247;50.064;19.970;2022-08-06T03:16:04;6.80;;;5.78;;
21084;SDS011;34247;50.064;19.970;2022-08-06T03:17:26;6.55;;;5.28;;
21084;SDS011;34247;50.064;19.970;2022-08-06T03:18:34;10.45;;;5.10;;
21084;SDS011;34247;50.064;19.970;2022-08-06T03:19:41;8.77;;;5.32;;
21084;SDS011;34247;50.064;19.970;2022-08-06T03:21:00;7.43;;;5.18;;
21084;SDS011;34247;50.064;19.970;2022-08-06T03:22:11;6.97;;;4.70;;
21084;SDS011;34247;50.064;19.970;2022-08-06T03:23:38;5.70;;;4.15;;
21084;SDS011;34247;50.064;19.970;2022-08-06T03:24:44;5.75;;;4.80;;
21084;SDS011;34247;50.064;19.970;2022-08-06T03:25:52;7.95;;;5.35;;
21084;SDS011;34247;50.064;19.970;2022-08-06T03:26:58;8.30;;;5.43;;
21084;SDS011;34247;50.064;19.970;2022-08-06T03:28:03;7.35;;;4.60;;
21084;SDS011;34247;50.064;19.970;2022-08-06T03:29:10;4.07;;;3.70;;
21084;SDS011;34247;50.064;19.970;2022-08-06T03:30:17;7.75;;;5.85;;
21084;SDS011;34247;50.064;19.970;2022-08-06T03:31:35;7.95;;;5.30;;
21084;SDS011;34247;50.064;19.970;2022-08-06T03:32:40;6.95;;;4.60;;
21084;SDS011;34247;50.064;19.970;2022-08-06T03:33:54;5.40;;;3.90;;
21084;SDS011;34247;50.064;19.970;2022-08-06T03:35:06;4.97;;;4.53;;
21084;SDS011;34247;50.064;19.970;2022-08-06T03:36:33;8.82;;;5.25;;
21084;SDS011;34247;50.064;19.970;2022-08-06T03:37:44;6.15;;;4.47;;
21084;SDS011;34247;50.064;19.970;2022-08-06T03:39:05;7.32;;;5.07;;
21084;SDS011;34247;50.064;19.970;2022-08-06T03:40:18;6.80;;;5.28;;
21084;SDS011;34247;50.064;19.970;2022-08-06T03:41:28;7.82;;;5.22;;
21084;SDS011;34247;50.064;19.970;2022-08-06T03:42:58;5.35;;;4.68;;
21084;SDS011;34247;50.064;19.970;2022-08-06T03:44:08;6.10;;;5.10;;
21084;SDS011;34247;50.064;19.970;2022-08-06T03:45:13;10.07;;;5.55;;
21084;SDS011;34247;50.064;19.970;2022-08-06T03:46:46;10.70;;;4.03;;
21084;SDS011;34247;50.064;19.970;2022-08-06T03:47:58;4.22;;;3.83;;
21084;SDS011;34247;50.064;19.970;2022-08-06T03:49:12;7.45;;;4.68;;
21084;SDS011;34247;50.064;19.970;2022-08-06T03:50:43;5.15;;;4.65;;
21084;SDS011;34247;50.064;19.970;2022-08-06T03:51:53;6.43;;;4.63;;
21084;SDS011;34247;50.064;19.970;2022-08-06T03:53:03;7.22;;;4.47;;
21084;SDS011;34247;50.064;19.970;2022-08-06T03:54:17;5.63;;;4.40;;
21084;SDS011;34247;50.064;19.970;2022-08-06T03:55:44;8.55;;;5.20;;
21084;SDS011;34247;50.064;19.970;2022-08-06T03:56:51;6.85;;;4.53;;
21084;SDS011;34247;50.064;19.970;2022-08-06T03:58:04;9.50;;;5.38;;
21084;SDS011;34247;50.064;19.970;2022-08-06T03:59:29;7.32;;;5.55;;
21084;SDS011;34247;50.064;19.970;2022-08-06T04:00:50;7.40;;;5.38;;
21084;SDS011;34247;50.064;19.970;2022-08-06T04:02:10;9.77;;;4.53;;
21084;SDS011;34247;50.064;19.970;2022-08-06T04:03:37;6.30;;;4.90;;
21084;SDS011;34247;50.064;19.970;2022-08-06T04:04:43;5.03;;;4.50;;
21084;SDS011;34247;50.064;19.970;2022-08-06T04:05:50;5.95;;;4.43;;
21084;SDS011;34247;50.064;19.970;2022-08-06T04:06:57;4.88;;;4.15;;
21084;SDS011;34247;50.064;19.970;2022-08-06T04:08:05;9.18;;;5.40;;
21084;SDS011;34247;50.064;19.970;2022-08-06T04:09:12;7.88;;;4.80;;
21084;SDS011;34247;50.064;19.970;2022-08-06T04:10:44;7.82;;;4.70;;
21084;SDS011;34247;50.064;19.970;2022-08-06T04:11:59;6.35;;;4.40;;
21084;SDS011;34247;50.064;19.970;2022-08-06T04:13:25;6.13;;;4.28;;
21084;SDS011;34247;50.064;19.970;2022-08-06T04:14:51;8.70;;;4.55;;
21084;SDS011;34247;50.064;19.970;2022-08-06T04:15:58;7.68;;;4.65;;
21084;SDS011;34247;50.064;19.970;2022-08-06T04:17:04;7.07;;;4.10;;
21084;SDS011;34247;50.064;19.970;2022-08-06T04:18:13;6.57;;;4.03;;
21084;SDS011;34247;50.064;19.970;2022-08-06T04:19:22;6.68;;;3.85;;
21084;SDS011;34247;50.064;19.970;2022-08-06T04:20:41;5.18;;;4.65;;
21084;SDS011;34247;50.064;19.970;2022-08-06T04:21:54;6.82;;;4.25;;
21084;SDS011;34247;50.064;19.970;2022-08-06T04:23:18;6.88;;;4.90;;
21084;SDS011;34247;50.064;19.970;2022-08-06T04:24:40;8.30;;;4.55;;
21084;SDS011;34247;50.064;19.970;2022-08-06T04:25:47;6.30;;;4.97;;
21084;SDS011;34247;50.064;19.970;2022-08-06T04:27:00;5.55;;;4.32;;
21084;SDS011;34247;50.064;19.970;2022-08-06T04:28:12;4.68;;;4.18;;
21084;SDS011;34247;50.064;19.970;2022-08-06T04:29:20;9.82;;;4.50;;
21084;SDS011;34247;50.064;19.970;2022-08-06T04:30:34;9.45;;;4.60;;
21084;SDS011;34247;50.064;19.970;2022-08-06T04:31:49;5.30;;;4.78;;
21084;SDS011;34247;50.064;19.970;2022-08-06T04:33:16;8.68;;;5.60;;
21084;SDS011;34247;50.064;19.970;2022-08-06T04:34:37;5.35;;;4.80;;
21084;SDS011;34247;50.064;19.970;2022-08-06T04:36:05;4.88;;;4.38;;
21084;SDS011;34247;50.064;19.970;2022-08-06T04:37:26;4.68;;;3.80;;
21084;SDS011;34247;50.064;19.970;2022-08-06T04:38:42;7.90;;;4.82;;
21084;SDS011;34247;50.064;19.970;2022-08-06T04:39:53;8.20;;;5.43;;
21084;SDS011;34247;50.064;19.970;2022-08-06T04:40:59;6.00;;;4.43;;
21084;SDS011;34247;50.064;19.970;2022-08-06T04:42:18;7.65;;;4.63;;
21084;SDS011;34247;50.064;19.970;2022-08-06T04:43:22;7.40;;;5.20;;
21084;SDS011;34247;50.064;19.970;2022-08-06T04:44:47;6.30;;;4.93;;
21084;SDS011;34247;50.064;19.970;2022-08-06T04:46:02;5.75;;;4.45;;
21084;SDS011;34247;50.064;19.970;2022-08-06T04:47:22;8.07;;;4.63;;
21084;SDS011;34247;50.064;19.970;2022-08-06T04:48:43;7.90;;;5.20;;
21084;SDS011;34247;50.064;19.970;2022-08-06T04:49:49;5.13;;;4.03;;
21084;SDS011;34247;50.064;19.970;2022-08-06T04:51:04;5.78;;;4.05;;
21084;SDS011;34247;50.064;19.970;2022-08-06T04:52:22;5.95;;;4.72;;
21084;SDS011;34247;50.064;19.970;2022-08-06T04:53:48;7.80;;;5.03;;
21084;SDS011;34247;50.064;19.970;2022-08-06T04:54:59;6.03;;;5.43;;
21084;SDS011;34247;50.064;19.970;2022-08-06T04:56:07;7.22;;;5.13;;
21084;SDS011;34247;50.064;19.970;2022-08-06T04:57:17;4.85;;;4.32;;
21084;SDS011;34247;50.064;19.970;2022-08-06T04:58:35;9.38;;;5.35;;
21084;SDS011;34247;50.064;19.970;2022-08-06T04:59:40;6.47;;;4.85;;
21084;SDS011;34247;50.064;19.970;2022-08-06T05:00:52;6.72;;;5.65;;
21084;SDS011;34247;50.064;19.970;2022-08-06T05:02:08;6.13;;;5.30;;
21084;SDS011;34247;50.064;19.970;2022-08-06T05:03:14;9.60;;;5.25;;
21084;SDS011;34247;50.064;19.970;2022-08-06T05:04:18;5.78;;;5.00;;
21084;SDS011;34247;50.064;19.970;2022-08-06T05:05:24;7.97;;;5.45;;
21084;SDS011;34247;50.064;19.970;2022-08-06T05:08:14;8.85;;;5.60;;
21084;SDS011;34247;50.064;19.970;2022-08-06T05:09:26;8.88;;;4.93;;
21084;SDS011;34247;50.064;19.970;2022-08-06T05:10:51;6.82;;;5.25;;
21084;SDS011;34247;50.064;19.970;2022-08-06T05:12:06;6.78;;;5.20;;
21084;SDS011;34247;50.064;19.970;2022-08-06T05:13:42;7.57;;;5.88;;
21084;SDS011;34247;50.064;19.970;2022-08-06T05:16:11;8.02;;;5.32;;
21084;SDS011;34247;50.064;19.970;2022-08-06T05:17:19;7.78;;;5.22;;
21084;SDS011;34247;50.064;19.970;2022-08-06T05:18:38;4.88;;;4.30;;
21084;SDS011;34247;50.064;19.970;2022-08-06T05:20:11;8.63;;;4.18;;
21084;SDS011;34247;50.064;19.970;2022-08-06T05:21:32;6.95;;;4.80;;
21084;SDS011;34247;50.064;19.970;2022-08-06T05:23:11;7.85;;;5.22;;
21084;SDS011;34247;50.064;19.970;2022-08-06T05:24:22;10.10;;;5.60;;
21084;SDS011;34247;50.064;19.970;2022-08-06T05:25:48;8.93;;;5.00;;
21084;SDS011;34247;50.064;19.970;2022-08-06T05:26:58;9.13;;;4.65;;
21084;SDS011;34247;50.064;19.970;2022-08-06T05:28:04;5.95;;;5.25;;
21084;SDS011;34247;50.064;19.970;2022-08-06T05:29:17;9.30;;;5.57;;
21084;SDS011;34247;50.064;19.970;2022-08-06T05:30:25;5.68;;;4.97;;
21084;SDS011;34247;50.064;19.970;2022-08-06T05:31:31;10.15;;;5.35;;
21084;SDS011;34247;50.064;19.970;2022-08-06T05:32:45;6.53;;;4.50;;
21084;SDS011;34247;50.064;19.970;2022-08-06T05:33:58;5.47;;;4.97;;
21084;SDS011;34247;50.064;19.970;2022-08-06T05:35:06;11.10;;;4.65;;
21084;SDS011;34247;50.064;19.970;2022-08-06T05:36:11;10.02;;;5.50;;
21084;SDS011;34247;50.064;19.970;2022-08-06T05:37:21;5.97;;;5.13;;
21084;SDS011;34247;50.064;19.970;2022-08-06T05:38:46;8.25;;;5.15;;
21084;SDS011;34247;50.064;19.970;2022-08-06T05:40:01;8.48;;;5.05;;
21084;SDS011;34247;50.064;19.970;2022-08-06T05:41:13;5.82;;;4.57;;
21084;SDS011;34247;50.064;19.970;2022-08-06T05:42:17;6.07;;;5.47;;
21084;SDS011;34247;50.064;19.970;2022-08-06T05:43:28;9.02;;;4.60;;
21084;SDS011;34247;50.064;19.970;2022-08-06T05:44:53;9.70;;;4.80;;
21084;SDS011;34247;50.064;19.970;2022-08-06T05:46:09;7.10;;;4.57;;
21084;SDS011;34247;50.064;19.970;2022-08-06T05:47:25;5.97;;;5.38;;
21084;SDS011;34247;50.064;19.970;2022-08-06T05:49:00;8.95;;;4.72;;
21084;SDS011;34247;50.064;19.970;2022-08-06T05:50:38;6.25;;;5.20;;
21084;SDS011;34247;50.064;19.970;2022-08-06T05:51:57;4.88;;;4.30;;
21084;SDS011;34247;50.064;19.970;2022-08-06T05:53:10;5.80;;;5.03;;
21084;SDS011;34247;50.064;19.970;2022-08-06T05:56:17;4.60;;;4.10;;
21084;SDS011;34247;50.064;19.970;2022-08-06T05:57:46;6.93;;;4.82;;
21084;SDS011;34247;50.064;19.970;2022-08-06T05:59:02;5.45;;;4.65;;
21084;SDS011;34247;50.064;19.970;2022-08-06T06:00:35;4.85;;;3.72;;
21084;SDS011;34247;50.064;19.970;2022-08-06T06:01:46;5.05;;;3.70;;
21084;SDS011;34247;50.064;19.970;2022-08-06T06:02:54;7.10;;;4.68;;
21084;SDS011;34247;50.064;19.970;2022-08-06T06:04:03;8.25;;;4.47;;
21084;SDS011;34247;50.064;19.970;2022-08-06T06:05:09;9.00;;;5.10;;
21084;SDS011;34247;50.064;19.970;2022-08-06T06:06:35;10.90;;;4.63;;
21084;SDS011;34247;50.064;19.970;2022-08-06T06:07:40;7.60;;;5.22;;
21084;SDS011;34247;50.064;19.970;2022-08-06T06:09:05;4.43;;;4.03;;
21084;SDS011;34247;50.064;19.970;2022-08-06T06:10:11;4.70;;;4.22;;
21084;SDS011;34247;50.064;19.970;2022-08-06T06:11:20;4.45;;;4.00;;
21084;SDS011;34247;50.064;19.970;2022-08-06T06:12:46;7.07;;;4.75;;
21084;SDS011;34247;50.064;19.970;2022-08-06T06:13:54;5.05;;;4.45;;
21084;SDS011;34247;50.064;19.970;2022-08-06T06:15:02;4.47;;;4.07;;
21084;SDS011;34247;50.064;19.970;2022-08-06T06:19:38;7.18;;;4.22;;
21084;SDS011;34247;50.064;19.970;2022-08-06T06:22:37;4.65;;;3.75;;
21084;SDS011;34247;50.064;19.970;2022-08-06T06:29:34;4.70;;;3.85;;
21084;SDS011;34247;50.064;19.970;2022-08-06T06:31:25;7.50;;;4.93;;
21084;SDS011;34247;50.064;19.970;2022-08-06T06:33:06;7.72;;;3.85;;
21084;SDS011;34247;50.064;19.970;2022-08-06T06:36:39;4.88;;;3.90;;
21084;SDS011;34247;50.064;19.970;2022-08-06T06:38:20;5.65;;;4.38;;
21084;SDS011;34247;50.064;19.970;2022-08-06T06:39:44;4.63;;;3.92;;
21084;SDS011;34247;50.064;19.970;2022-08-06T06:42:41;4.28;;;3.85;;
21084;SDS011;34247;50.064;19.970;2022-08-06T06:47:47;5.75;;;5.15;;
21084;SDS011;34247;50.064;19.970;2022-08-06T06:51:08;5.88;;;4.30;;
21084;SDS011;34247;50.064;19.970;2022-08-06T06:52:40;6.20;;;3.45;;
21084;SDS011;34247;50.064;19.970;2022-08-06T06:53:47;7.40;;;3.75;;
21084;SDS011;34247;50.064;19.970;2022-08-06T06:55:28;4.15;;;3.65;;
21084;SDS011;34247;50.064;19.970;2022-08-06T06:56:59;5.43;;;4.30;;
21084;SDS011;34247;50.064;19.970;2022-08-06T07:00:00;4.88;;;3.83;;
21084;SDS011;34247;50.064;19.970;2022-08-06T07:01:28;4.43;;;3.80;;
21084;SDS011;34247;50.064;19.970;2022-08-06T07:02:37;4.15;;;3.40;;
21084;SDS011;34247;50.064;19.970;2022-08-06T07:03:46;7.15;;;3.45;;
21084;SDS011;34247;50.064;19.970;2022-08-06T07:04:53;5.70;;;3.47;;
21084;SDS011;34247;50.064;19.970;2022-08-06T07:06:02;8.32;;;3.75;;
21084;SDS011;34247;50.064;19.970;2022-08-06T07:07:12;5.05;;;3.72;;
21084;SDS011;34247;50.064;19.970;2022-08-06T07:08:25;9.40;;;3.55;;
21084;SDS011;34247;50.064;19.970;2022-08-06T07:09:39;6.68;;;3.33;;
21084;SDS011;34247;50.064;19.970;2022-08-06T07:11:01;4.20;;;3.28;;
21084;SDS011;34247;50.064;19.970;2022-08-06T07:12:12;4.18;;;2.90;;
21084;SDS011;34247;50.064;19.970;2022-08-06T07:13:22;3.83;;;3.05;;
21084;SDS011;34247;50.064;19.970;2022-08-06T07:14:49;4.85;;;3.30;;
21084;SDS011;34247;50.064;19.970;2022-08-06T07:16:04;3.45;;;3.15;;
21084;SDS011;34247;50.064;19.970;2022-08-06T07:17:10;3.72;;;3.33;;
21084;SDS011;34247;50.064;19.970;2022-08-06T07:18:36;5.13;;;3.17;;
21084;SDS011;34247;50.064;19.970;2022-08-06T07:19:53;3.20;;;2.85;;
21084;SDS011;34247;50.064;19.970;2022-08-06T07:21:02;5.00;;;3.72;;
21084;SDS011;34247;50.064;19.970;2022-08-06T07:22:09;6.78;;;3.80;;
21084;SDS011;34247;50.064;19.970;2022-08-06T07:23:18;3.70;;;3.33;;
21084;SDS011;34247;50.064;19.970;2022-08-06T07:24:44;4.40;;;3.78;;
21084;SDS011;34247;50.064;19.970;2022-08-06T07:25:51;6.57;;;3.30;;
21084;SDS011;34247;50.064;19.970;2022-08-06T07:27:01;3.72;;;3.35;;
21084;SDS011;34247;50.064;19.970;2022-08-06T07:28:09;5.32;;;3.55;;
21084;SDS011;34247;50.064;19.970;2022-08-06T07:29:25;4.80;;;3.65;;
21084;SDS011;34247;50.064;19.970;2022-08-06T07:30:53;3.85;;;3.25;;
21084;SDS011;34247;50.064;19.970;2022-08-06T07:32:08;4.78;;;3.20;;
21084;SDS011;34247;50.064;19.970;2022-08-06T07:33:33;5.53;;;3.58;;
21084;SDS011;34247;50.064;19.970;2022-08-06T07:35:01;9.15;;;5.10;;
21084;SDS011;34247;50.064;19.970;2022-08-06T07:36:15;3.78;;;3.47;;
21084;SDS011;34247;50.064;19.970;2022-08-06T07:37:28;4.60;;;3.78;;
21084;SDS011;34247;50.064;19.970;2022-08-06T07:38:41;5.07;;;3.85;;
21084;SDS011;34247;50.064;19.970;2022-08-06T07:39:50;8.25;;;3.78;;
21084;SDS011;34247;50.064;19.970;2022-08-06T07:40:59;4.70;;;3.88;;
21084;SDS011;34247;50.064;19.970;2022-08-06T07:42:12;7.03;;;3.97;;
21084;SDS011;34247;50.064;19.970;2022-08-06T07:43:26;3.97;;;3.60;;
21084;SDS011;34247;50.064;19.970;2022-08-06T07:44:35;4.40;;;3.85;;
21084;SDS011;34247;50.064;19.970;2022-08-06T07:45:59;4.88;;;4.38;;
21084;SDS011;34247;50.064;19.970;2022-08-06T07:47:08;4.75;;;4.15;;
21084;SDS011;34247;50.064;19.970;2022-08-06T07:48:45;6.60;;;4.57;;
21084;SDS011;34247;50.064;19.970;2022-08-06T07:49:56;4.80;;;3.65;;
21084;SDS011;34247;50.064;19.970;2022-08-06T07:51:04;6.53;;;4.60;;
21084;SDS011;34247;50.064;19.970;2022-08-06T07:52:12;4.55;;;3.53;;
21084;SDS011;34247;50.064;19.970;2022-08-06T07:53:20;4.60;;;4.13;;
21084;SDS011;34247;50.064;19.970;2022-08-06T07:54:48;5.80;;;4.75;;
21084;SDS011;34247;50.064;19.970;2022-08-06T07:55:55;4.90;;;4.30;;
21084;SDS011;34247;50.064;19.970;2022-08-06T07:57:02;6.15;;;4.28;;
21084;SDS011;34247;50.064;19.970;2022-08-06T07:58:17;4.05;;;3.67;;
21084;SDS011;34247;50.064;19.970;2022-08-06T07:59:32;6.95;;;4.50;;
21084;SDS011;34247;50.064;19.970;2022-08-06T08:00:46;5.78;;;4.50;;
21084;SDS011;34247;50.064;19.970;2022-08-06T08:01:52;5.40;;;4.50;;
21084;SDS011;34247;50.064;19.970;2022-08-06T08:02:58;5.40;;;4.68;;